createdAt,value
2023-02-28T00:01:49.369Z,9.70
2023-02-28T00:04:21.509Z,9.97
2023-02-28T00:06:57.307Z,8.50
2023-02-28T00:09:28.827Z,9.37
2023-02-28T00:11:59.118Z,8.10
2023-02-28T00:14:29.084Z,8.17
2023-02-28T00:16:59.086Z,8.33
2023-02-28T00:19:30.143Z,10.90
2023-02-28T00:22:05.794Z,9.83
2023-02-28T00:24:36.666Z,9.93
2023-02-28T00:27:16.958Z,9.40
2023-02-28T00:29:49.562Z,9.40
2023-02-28T00:32:20.073Z,7.17
2023-02-28T00:34:49.666Z,8.40
2023-02-28T00:37:19.337Z,7.43
2023-02-28T00:39:49.240Z,7.47
2023-02-28T00:42:19.912Z,8.83
2023-02-28T00:44:50.724Z,7.60
2023-02-28T00:47:21.641Z,7.42
2023-02-28T00:52:24.198Z,9.43
2023-02-28T00:54:54.078Z,9.07
2023-02-28T00:57:23.997Z,8.60
2023-02-28T00:59:55.498Z,6.28
2023-02-28T01:04:55.688Z,7.90
2023-02-28T01:07:26.809Z,9.10
2023-02-28T01:09:56.722Z,8.18
2023-02-28T01:12:30.553Z,8.33
2023-02-28T01:15:00.246Z,7.47
2023-02-28T01:17:29.818Z,7.57
2023-02-28T01:20:01.396Z,9.37
2023-02-28T01:22:31.195Z,8.83
2023-02-28T01:25:01.040Z,8.10
2023-02-28T01:27:36.842Z,8.63
2023-02-28T01:30:08.102Z,8.00
2023-02-28T01:35:08.004Z,6.78
2023-02-28T01:37:37.671Z,7.10
2023-02-28T01:40:08.071Z,7.27
2023-02-28T01:42:38.140Z,6.92
2023-02-28T01:45:22.976Z,7.23
2023-02-28T01:47:55.577Z,7.57
2023-02-28T01:50:31.222Z,5.90
2023-02-28T01:53:04.579Z,6.63
2023-02-28T01:55:35.592Z,7.23
2023-02-28T01:58:10.201Z,7.26
2023-02-28T02:00:45.970Z,7.30
2023-02-28T02:03:20.052Z,9.30
2023-02-28T02:05:50.300Z,9.25
2023-02-28T02:08:26.167Z,7.53
2023-02-28T02:10:58.906Z,8.13
2023-02-28T02:13:46.319Z,8.48
2023-02-28T02:16:24.800Z,7.80
2023-02-28T02:19:17.024Z,7.77
2023-02-28T02:22:23.620Z,7.57
2023-02-28T02:25:02.603Z,7.73
2023-02-28T02:27:38.169Z,7.77
2023-02-28T02:30:36.027Z,8.57
2023-02-28T02:33:27.838Z,8.70
2023-02-28T02:36:00.430Z,7.97
2023-02-28T02:38:46.988Z,7.13
2023-02-28T02:41:23.021Z,9.47
2023-02-28T02:44:07.670Z,8.37
2023-02-28T02:46:40.518Z,8.70
2023-02-28T02:49:13.432Z,9.00
2023-02-28T02:51:45.234Z,9.00
2023-02-28T02:54:20.748Z,9.13
2023-02-28T02:56:53.252Z,7.43
2023-02-28T02:59:26.548Z,9.10
2023-02-28T03:01:59.702Z,8.63
2023-02-28T03:04:32.571Z,8.27
2023-02-28T03:07:02.425Z,8.90
2023-02-28T03:09:36.418Z,9.03
2023-02-28T03:12:11.166Z,9.23
2023-02-28T03:15:02.243Z,9.95
2023-02-28T03:17:50.680Z,7.50
2023-02-28T03:20:35.472Z,9.13
2023-02-28T03:23:15.298Z,8.40
2023-02-28T03:25:50.820Z,8.90
2023-02-28T03:28:51.942Z,9.40
2023-02-28T03:31:30.612Z,9.25
2023-02-28T03:34:09.405Z,9.50
2023-02-28T03:36:43.900Z,7.30
2023-02-28T03:39:16.508Z,7.80
2023-02-28T03:41:52.085Z,9.53
2023-02-28T03:44:33.185Z,9.50
2023-02-28T03:47:08.762Z,9.53
2023-02-28T03:49:45.791Z,8.97
2023-02-28T03:52:16.604Z,9.03
2023-02-28T03:54:49.442Z,7.67
2023-02-28T03:57:22.038Z,10.97
2023-02-28T04:00:10.185Z,9.47
2023-02-28T04:02:43.965Z,9.37
2023-02-28T04:05:13.907Z,10.78
2023-02-28T04:07:43.589Z,11.63
2023-02-28T04:10:14.808Z,9.20
2023-02-28T04:12:44.460Z,9.08
2023-02-28T04:15:14.245Z,8.70
2023-02-28T04:17:44.147Z,9.33
2023-02-28T04:20:14.487Z,10.18
2023-02-28T04:22:44.095Z,10.13
2023-02-28T04:25:13.774Z,10.77
2023-02-28T04:27:45.503Z,10.55
2023-02-28T04:30:15.513Z,12.00
2023-02-28T04:32:45.182Z,11.57
2023-02-28T04:35:15.014Z,10.60
2023-02-28T04:37:44.857Z,11.03
2023-02-28T04:40:14.563Z,9.63
2023-02-28T04:42:44.456Z,9.97
2023-02-28T04:45:14.247Z,9.93
2023-02-28T04:47:44.019Z,10.40
2023-02-28T04:50:13.660Z,9.90
2023-02-28T04:52:43.490Z,9.17
2023-02-28T04:55:12.986Z,10.43
2023-02-28T04:57:43.569Z,10.83
2023-02-28T05:00:15.680Z,9.88
2023-02-28T05:02:45.773Z,9.80
2023-02-28T05:05:16.939Z,11.27
2023-02-28T05:07:47.090Z,11.43
2023-02-28T05:10:16.764Z,9.93
2023-02-28T05:12:46.561Z,9.93
2023-02-28T05:15:17.544Z,11.17
2023-02-28T05:17:47.519Z,10.85
2023-02-28T05:20:17.602Z,10.13
2023-02-28T05:22:47.515Z,11.20
2023-02-28T05:25:19.740Z,10.60
2023-02-28T05:27:49.941Z,10.13
2023-02-28T05:30:19.832Z,11.85
2023-02-28T05:32:52.584Z,10.47
2023-02-28T05:35:22.414Z,10.70
2023-02-28T05:37:52.203Z,10.83
2023-02-28T05:40:21.868Z,10.73
2023-02-28T05:42:53.035Z,11.60
2023-02-28T05:45:22.929Z,11.60
2023-02-28T05:47:57.241Z,12.23
2023-02-28T05:50:27.373Z,10.53
2023-02-28T05:52:57.187Z,11.07
2023-02-28T05:55:27.092Z,9.50
2023-02-28T05:57:57.030Z,11.30
2023-02-28T06:00:26.924Z,10.10
2023-02-28T06:02:58.356Z,10.27
2023-02-28T06:05:28.873Z,9.17
2023-02-28T06:07:58.368Z,9.83
2023-02-28T06:10:28.802Z,10.33
2023-02-28T06:12:59.818Z,8.07
2023-02-28T06:15:29.995Z,9.15
2023-02-28T06:18:00.684Z,9.60
2023-02-28T06:20:30.611Z,9.50
2023-02-28T06:23:01.330Z,9.23
2023-02-28T06:25:31.150Z,9.43
2023-02-28T06:28:01.375Z,10.10
2023-02-28T06:30:32.035Z,9.45
2023-02-28T06:33:01.787Z,10.43
2023-02-28T06:35:31.883Z,7.87
2023-02-28T06:38:01.954Z,9.68
2023-02-28T06:40:33.410Z,10.40
2023-02-28T06:43:03.479Z,10.67
2023-02-28T06:45:33.309Z,10.40
2023-02-28T06:48:03.499Z,9.73
2023-02-28T06:50:33.633Z,9.60
2023-02-28T06:53:03.421Z,10.20
2023-02-28T06:55:34.042Z,11.12
2023-02-28T06:58:08.167Z,10.13
2023-02-28T07:00:37.961Z,10.70
2023-02-28T07:03:07.441Z,10.70
2023-02-28T07:05:38.819Z,10.57
2023-02-28T07:10:39.945Z,9.38
2023-02-28T07:13:10.454Z,9.37
2023-02-28T07:15:43.925Z,9.83
2023-02-28T07:18:12.381Z,8.88
2023-02-28T07:20:42.220Z,7.73
2023-02-28T07:23:11.765Z,8.20
2023-02-28T07:25:41.531Z,8.13
2023-02-28T07:28:11.576Z,8.53
2023-02-28T07:30:42.310Z,10.13
2023-02-28T07:33:12.285Z,9.00
2023-02-28T07:35:42.421Z,8.23
2023-02-28T07:38:13.946Z,6.20
2023-02-28T07:40:43.798Z,6.73
2023-02-28T07:43:13.387Z,8.37
2023-02-28T07:45:43.184Z,7.20
2023-02-28T07:48:12.710Z,6.50
2023-02-28T07:50:42.557Z,6.27
2023-02-28T07:53:12.354Z,6.33
2023-02-28T07:55:42.133Z,7.30
2023-02-28T07:58:11.711Z,6.23
2023-02-28T08:00:41.546Z,7.77
2023-02-28T08:03:14.668Z,5.40
2023-02-28T08:05:44.478Z,5.27
2023-02-28T08:08:14.353Z,4.85
2023-02-28T08:10:44.766Z,5.72
2023-02-28T08:13:14.523Z,5.07
2023-02-28T08:15:46.279Z,4.13
2023-02-28T08:18:15.831Z,5.10
2023-02-28T08:20:45.616Z,5.77
2023-02-28T08:23:15.582Z,5.23
2023-02-28T08:25:45.746Z,5.83
2023-02-28T08:28:15.282Z,5.57
2023-02-28T08:30:45.056Z,4.97
2023-02-28T08:33:14.802Z,5.27
2023-02-28T08:35:44.693Z,5.47
2023-02-28T08:38:14.348Z,4.97
2023-02-28T08:40:44.145Z,4.77
2023-02-28T08:43:13.657Z,5.10
2023-02-28T08:45:43.525Z,4.67
2023-02-28T08:48:14.533Z,4.67
2023-02-28T08:50:48.384Z,5.30
2023-02-28T08:53:15.346Z,4.23
2023-02-28T08:55:45.126Z,4.27
2023-02-28T08:58:14.894Z,4.47
2023-02-28T09:00:44.717Z,3.77
2023-02-28T09:03:14.370Z,4.07
2023-02-28T09:05:45.668Z,4.00
2023-02-28T09:08:15.480Z,4.70
2023-02-28T09:10:45.277Z,4.10
2023-02-28T09:13:14.852Z,2.50
2023-02-28T09:15:44.661Z,2.83
2023-02-28T09:18:14.676Z,2.43
2023-02-28T09:20:45.744Z,1.93
2023-02-28T09:23:15.786Z,1.42
2023-02-28T09:25:50.885Z,0.90
2023-02-28T09:28:21.364Z,2.07
2023-02-28T09:30:53.990Z,2.15
2023-02-28T09:33:24.630Z,1.23
2023-02-28T09:35:57.564Z,2.12
2023-02-28T09:38:28.831Z,1.33
2023-02-28T09:41:01.623Z,2.13
2023-02-28T09:43:34.716Z,2.02
2023-02-28T09:46:37.092Z,2.87
2023-02-28T09:49:10.610Z,1.70
2023-02-28T09:51:46.284Z,2.10
2023-02-28T09:54:20.073Z,2.30
2023-02-28T09:56:58.892Z,1.73
2023-02-28T09:59:44.195Z,1.80
2023-02-28T10:02:34.895Z,1.80
2023-02-28T10:05:09.085Z,1.67
2023-02-28T10:07:58.388Z,2.17
2023-02-28T10:10:34.422Z,2.00
2023-02-28T10:13:07.300Z,2.43
2023-02-28T10:15:38.231Z,3.10
2023-02-28T10:18:12.186Z,2.27
2023-02-28T10:20:44.749Z,1.90
2023-02-28T10:23:29.408Z,2.58
2023-02-28T10:26:04.786Z,3.23
2023-02-28T10:28:34.841Z,2.70
2023-02-28T10:31:06.194Z,3.45
2023-02-28T10:33:37.227Z,2.60
2023-02-28T10:38:40.407Z,4.20
2023-02-28T10:41:31.440Z,3.27
2023-02-28T10:44:22.411Z,3.77
2023-02-28T10:46:53.635Z,3.90
2023-02-28T10:49:26.857Z,3.80
2023-02-28T10:52:02.142Z,3.33
2023-02-28T10:54:36.403Z,4.17
2023-02-28T10:57:22.254Z,3.93
2023-02-28T10:59:58.690Z,3.50
2023-02-28T11:05:06.485Z,3.13
2023-02-28T11:07:50.443Z,3.47
2023-02-28T11:10:10.049Z,3.10
2023-02-28T11:12:51.932Z,2.90
2023-02-28T11:15:33.460Z,3.60
2023-02-28T11:18:06.143Z,3.40
2023-02-28T11:20:37.075Z,3.63
2023-02-28T11:23:08.928Z,3.43
2023-02-28T11:25:40.977Z,3.42
2023-02-28T11:28:28.834Z,2.67
2023-02-28T11:31:04.430Z,2.50
2023-02-28T11:33:46.217Z,2.50
2023-02-28T11:36:22.049Z,3.22
2023-02-28T11:38:51.601Z,2.37
2023-02-28T11:41:40.892Z,2.47
2023-02-28T11:44:24.467Z,2.43
2023-02-28T11:46:57.310Z,2.47
2023-02-28T11:49:58.952Z,2.73
2023-02-28T11:52:44.050Z,2.57
2023-02-28T11:55:28.674Z,2.73
2023-02-28T11:58:13.351Z,2.90
2023-02-28T12:00:48.901Z,2.60
2023-02-28T12:03:24.571Z,2.75
2023-02-28T12:06:09.598Z,2.90
2023-02-28T12:09:07.494Z,2.80
2023-02-28T12:11:52.818Z,3.73
2023-02-28T12:14:30.869Z,3.25
2023-02-28T12:17:15.828Z,4.67
2023-02-28T12:19:57.446Z,4.40
2023-02-28T12:22:31.132Z,3.80
2023-02-28T12:25:06.650Z,3.47
2023-02-28T12:27:42.025Z,3.70
2023-02-28T12:30:20.667Z,3.73
2023-02-28T12:32:53.928Z,4.03
2023-02-28T12:35:38.313Z,3.80
2023-02-28T12:38:23.042Z,3.80
2023-02-28T12:40:58.576Z,4.63
2023-02-28T12:43:31.400Z,3.60
2023-02-28T12:46:07.006Z,3.93
2023-02-28T12:48:48.440Z,3.43
2023-02-28T12:51:20.572Z,4.15
2023-02-28T12:54:08.034Z,4.53
2023-02-28T12:56:55.870Z,3.50
2023-02-28T12:59:43.565Z,3.37
2023-02-28T13:02:28.046Z,3.70
2023-02-28T13:05:06.493Z,3.27
2023-02-28T13:07:39.343Z,3.43
2023-02-28T13:10:09.805Z,3.60
2023-02-28T13:12:42.863Z,3.92
2023-02-28T13:15:22.981Z,2.83
2023-02-28T13:17:55.330Z,2.73
2023-02-28T13:20:33.847Z,3.77
2023-02-28T13:23:04.003Z,3.70
2023-02-28T13:25:39.947Z,3.13
2023-02-28T13:28:12.206Z,4.35
2023-02-28T13:30:58.228Z,3.80
2023-02-28T13:33:50.712Z,3.20
2023-02-28T13:36:23.996Z,3.03
2023-02-28T13:38:59.934Z,3.23
2023-02-28T13:41:35.585Z,3.33
2023-02-28T13:44:12.605Z,3.90
2023-02-28T13:46:54.718Z,4.03
2023-02-28T13:49:30.441Z,3.40
2023-02-28T13:52:16.939Z,3.67
2023-02-28T13:55:01.938Z,4.27
2023-02-28T13:57:51.761Z,3.30
2023-02-28T14:00:39.353Z,3.90
2023-02-28T14:03:26.899Z,3.70
2023-02-28T14:06:20.728Z,3.77
2023-02-28T14:09:03.808Z,3.87
2023-02-28T14:11:37.145Z,4.03
2023-02-28T14:14:09.607Z,3.57
2023-02-28T14:16:46.733Z,4.50
2023-02-28T14:19:19.732Z,3.70
2023-02-28T14:21:55.393Z,4.50
2023-02-28T14:24:44.705Z,3.50
2023-02-28T14:27:47.110Z,3.77
2023-02-28T14:30:52.944Z,3.57
2023-02-28T14:33:38.632Z,3.62
2023-02-28T14:36:11.460Z,3.47
2023-02-28T14:38:54.581Z,3.77
2023-02-28T14:41:27.498Z,4.15
2023-02-28T14:44:02.661Z,3.80
2023-02-28T14:46:41.177Z,3.50
2023-02-28T14:49:32.234Z,4.62
2023-02-28T14:52:11.038Z,4.42
2023-02-28T14:54:41.955Z,3.93
2023-02-28T14:57:35.660Z,3.77
2023-02-28T15:00:24.803Z,3.35
2023-02-28T15:02:55.819Z,4.77
2023-02-28T15:05:31.643Z,4.42
2023-02-28T15:08:10.209Z,5.17
2023-02-28T15:10:41.626Z,5.23
2023-02-28T15:13:14.454Z,4.70
2023-02-28T15:16:08.247Z,4.70
2023-02-28T15:18:47.163Z,4.43
2023-02-28T15:21:19.706Z,4.23
2023-02-28T15:24:04.322Z,3.80
2023-02-28T15:26:37.528Z,3.37
2023-02-28T15:29:15.664Z,3.93
2023-02-28T15:31:57.099Z,4.00
2023-02-28T15:37:41.194Z,7.62
2023-02-28T15:40:26.809Z,5.44
2023-02-28T15:43:11.421Z,4.37
2023-02-28T15:45:45.001Z,3.47
2023-02-28T15:48:23.474Z,3.53
2023-02-28T15:50:56.331Z,3.27
2023-02-28T15:53:29.177Z,4.60
2023-02-28T15:56:05.997Z,3.90
2023-02-28T15:58:38.137Z,5.15
2023-02-28T16:01:23.113Z,7.13
2023-02-28T16:03:55.735Z,3.12
2023-02-28T16:06:46.850Z,3.83
2023-02-28T16:11:49.616Z,3.95
2023-02-28T16:14:24.052Z,4.57
2023-02-28T16:16:56.698Z,3.87
2023-02-28T16:19:27.162Z,3.42
2023-02-28T16:21:57.879Z,4.50
2023-02-28T16:24:27.712Z,3.87
2023-02-28T16:26:58.784Z,3.33
2023-02-28T16:29:34.374Z,4.03
2023-02-28T16:32:07.135Z,3.17
2023-02-28T16:34:37.002Z,4.60
2023-02-28T16:37:14.120Z,5.20
2023-02-28T16:39:45.410Z,4.37
2023-02-28T16:42:26.999Z,3.72
2023-02-28T16:44:59.053Z,4.97
2023-02-28T16:47:29.044Z,4.17
2023-02-28T16:49:58.907Z,4.77
2023-02-28T16:52:28.713Z,4.43
2023-02-28T16:54:58.620Z,4.33
2023-02-28T16:57:28.649Z,5.23
2023-02-28T16:59:58.959Z,4.95
2023-02-28T17:02:28.815Z,5.07
2023-02-28T17:04:58.799Z,4.60
2023-02-28T17:07:30.131Z,4.67
2023-02-28T17:10:02.164Z,4.80
2023-02-28T17:12:34.379Z,4.50
2023-02-28T17:15:04.239Z,4.70
2023-02-28T17:17:34.302Z,3.80
2023-02-28T17:20:05.641Z,5.33
2023-02-28T17:22:35.502Z,6.27
2023-02-28T17:25:07.116Z,7.74
2023-02-28T17:27:36.967Z,5.40
2023-02-28T17:30:18.697Z,5.77
2023-02-28T17:32:48.565Z,5.77
2023-02-28T17:35:18.545Z,5.20
2023-02-28T17:37:48.334Z,6.37
2023-02-28T17:40:20.944Z,5.58
2023-02-28T17:42:52.703Z,6.92
2023-02-28T17:45:22.422Z,5.37
2023-02-28T17:47:52.606Z,7.87
2023-02-28T17:50:24.028Z,6.17
2023-02-28T17:52:54.181Z,7.03
2023-02-28T17:55:23.841Z,7.93
2023-02-28T17:57:53.741Z,8.40
2023-02-28T18:00:24.977Z,8.27
2023-02-28T18:02:57.956Z,8.87
2023-02-28T18:05:28.087Z,9.17
2023-02-28T18:07:58.389Z,10.23
2023-02-28T18:10:28.332Z,9.63
2023-02-28T18:12:58.331Z,7.97
2023-02-28T18:15:28.164Z,9.57
2023-02-28T18:17:58.073Z,8.40
2023-02-28T18:20:29.241Z,8.33
2023-02-28T18:22:59.152Z,7.60
2023-02-28T18:25:29.516Z,7.50
2023-02-28T18:27:59.277Z,5.07
2023-02-28T18:30:34.205Z,6.57
2023-02-28T18:33:04.677Z,5.53
2023-02-28T18:35:37.461Z,6.77
2023-02-28T18:38:12.355Z,6.57
2023-02-28T18:40:43.976Z,6.83
2023-02-28T18:43:13.889Z,5.92
2023-02-28T18:45:43.760Z,6.92
2023-02-28T18:48:15.020Z,7.67
2023-02-28T18:50:44.900Z,6.92
2023-02-28T18:53:14.855Z,7.33
2023-02-28T18:55:44.894Z,8.03
2023-02-28T18:58:14.757Z,7.42
2023-02-28T19:00:44.884Z,7.85
2023-02-28T19:03:15.028Z,7.00
2023-02-28T19:05:47.120Z,7.97
2023-02-28T19:08:16.826Z,7.60
2023-02-28T19:10:49.560Z,8.67
2023-02-28T19:13:20.948Z,7.87
2023-02-28T19:15:53.771Z,8.83
2023-02-28T19:18:22.502Z,8.60
2023-02-28T19:20:52.430Z,10.57
2023-02-28T19:23:22.318Z,13.13
2023-02-28T19:25:53.006Z,14.30
2023-02-28T19:28:23.107Z,13.33
2023-02-28T19:30:53.194Z,12.87
2023-02-28T19:33:23.220Z,12.15
2023-02-28T19:35:53.173Z,11.23
2023-02-28T19:38:23.131Z,9.97
2023-02-28T19:40:55.978Z,10.00
2023-02-28T19:43:26.082Z,10.40
2023-02-28T19:45:55.722Z,9.13
2023-02-28T19:48:28.037Z,7.87
2023-02-28T19:51:07.206Z,7.83
2023-02-28T19:53:42.558Z,8.27
2023-02-28T19:56:13.118Z,7.15
2023-02-28T19:58:42.723Z,6.73
2023-02-28T20:01:20.719Z,8.20
2023-02-28T20:03:52.540Z,7.30
2023-02-28T20:06:22.067Z,8.57
2023-02-28T20:08:53.099Z,7.60
2023-02-28T20:11:22.889Z,7.33
2023-02-28T20:13:57.173Z,8.33
2023-02-28T20:16:28.927Z,10.43
2023-02-28T20:18:59.490Z,9.93
2023-02-28T20:21:30.532Z,8.00
2023-02-28T20:26:29.241Z,7.53
2023-02-28T20:28:58.925Z,8.17
2023-02-28T20:31:30.510Z,7.47
2023-02-28T20:34:00.450Z,9.57
2023-02-28T20:36:30.367Z,8.73
2023-02-28T20:39:00.556Z,11.00
2023-02-28T20:41:30.310Z,10.70
2023-02-28T20:44:02.537Z,10.10
2023-02-28T20:46:34.136Z,10.13
2023-02-28T20:49:03.806Z,11.20
2023-02-28T20:51:33.502Z,12.70
2023-02-28T20:54:05.342Z,12.47
2023-02-28T20:56:34.631Z,12.93
2023-02-28T20:59:04.243Z,13.63
2023-02-28T21:01:34.190Z,10.93
2023-02-28T21:04:06.908Z,8.80
2023-02-28T21:06:39.145Z,7.77
2023-02-28T21:09:11.319Z,8.37
2023-02-28T21:11:41.207Z,9.27
2023-02-28T21:14:14.812Z,9.45
2023-02-28T21:16:44.896Z,10.77
2023-02-28T21:19:14.778Z,10.08
2023-02-28T21:21:47.767Z,9.33
2023-02-28T21:24:19.749Z,10.40
2023-02-28T21:26:49.700Z,10.17
2023-02-28T21:29:19.445Z,9.10
2023-02-28T21:31:53.733Z,8.27
2023-02-28T21:34:23.524Z,9.15
2023-02-28T21:36:54.367Z,7.97
2023-02-28T21:39:28.721Z,9.45
2023-02-28T21:42:01.511Z,9.53
2023-02-28T21:47:03.525Z,9.03
2023-02-28T21:49:33.554Z,9.87
2023-02-28T21:52:03.990Z,10.57
2023-02-28T21:54:34.079Z,10.48
2023-02-28T21:57:03.688Z,11.47
2023-02-28T21:59:33.556Z,10.13
2023-02-28T22:02:05.274Z,10.40
2023-02-28T22:04:35.073Z,10.30
2023-02-28T22:07:05.038Z,9.23
2023-02-28T22:09:34.909Z,9.87
2023-02-28T22:12:06.144Z,11.80
2023-02-28T22:17:04.646Z,10.68
2023-02-28T22:19:36.010Z,13.50
2023-02-28T22:22:06.507Z,12.90
2023-02-28T22:24:36.276Z,12.73
2023-02-28T22:27:06.672Z,12.70
2023-02-28T22:29:57.809Z,10.83
2023-02-28T22:33:20.211Z,11.73
2023-02-28T22:36:18.603Z,13.48
2023-02-28T22:42:21.470Z,12.27
2023-02-28T22:47:09.419Z,12.90
2023-02-28T22:52:07.783Z,11.83
2023-02-28T22:54:37.487Z,13.47
2023-02-28T22:57:49.900Z,13.23
2023-02-28T23:00:20.314Z,14.13
2023-02-28T23:02:50.279Z,13.80
2023-02-28T23:05:20.030Z,13.33
2023-02-28T23:07:49.636Z,14.07
2023-02-28T23:10:19.756Z,14.47
2023-02-28T23:12:53.264Z,15.98
2023-02-28T23:15:23.380Z,14.90
2023-02-28T23:17:53.010Z,13.37
2023-02-28T23:20:22.720Z,12.10
2023-02-28T23:22:52.399Z,13.30
2023-02-28T23:25:22.708Z,12.67
2023-02-28T23:27:52.255Z,11.60
2023-02-28T23:30:21.904Z,13.30
2023-02-28T23:32:51.443Z,13.73
2023-02-28T23:35:21.070Z,15.60
2023-02-28T23:37:51.865Z,14.97
2023-02-28T23:42:51.080Z,14.60
2023-02-28T23:45:20.947Z,18.50
2023-02-28T23:47:50.521Z,14.93
2023-02-28T23:50:20.185Z,15.57
2023-02-28T23:52:49.953Z,17.13
2023-02-28T23:55:20.589Z,16.70
2023-02-28T23:57:50.389Z,14.78
